createdAt,value
2022-10-11T00:01:47.522Z,5.57
2022-10-11T00:04:14.224Z,5.15
2022-10-11T00:06:43.387Z,6.07
2022-10-11T00:09:14.596Z,5.43
2022-10-11T00:11:41.463Z,5.45
2022-10-11T00:14:08.572Z,5.15
2022-10-11T00:16:35.375Z,5.63
2022-10-11T00:19:02.408Z,4.43
2022-10-11T00:21:30.547Z,5.40
2022-10-11T00:23:57.292Z,5.20
2022-10-11T00:26:24.018Z,5.10
2022-10-11T00:28:52.755Z,5.97
2022-10-11T00:31:19.677Z,5.47
2022-10-11T00:33:46.400Z,4.80
2022-10-11T00:36:14.656Z,5.95
2022-10-11T00:38:41.567Z,5.55
2022-10-11T00:41:08.266Z,5.03
2022-10-11T00:43:35.161Z,5.28
2022-10-11T00:46:26.601Z,5.60
2022-10-11T00:49:22.630Z,6.03
2022-10-11T00:51:59.287Z,5.03
2022-10-11T00:54:29.227Z,5.43
2022-10-11T00:57:09.928Z,5.15
2022-10-11T00:59:41.465Z,5.45
2022-10-11T01:02:10.127Z,5.10
2022-10-11T01:04:37.349Z,5.22
2022-10-11T01:07:04.449Z,5.85
2022-10-11T01:09:31.522Z,5.78
2022-10-11T01:12:02.947Z,6.45
2022-10-11T01:15:13.502Z,5.53
2022-10-11T01:17:52.183Z,5.45
2022-10-11T01:20:36.940Z,5.47
2022-10-11T01:23:43.672Z,5.68
2022-10-11T01:26:27.146Z,5.85
2022-10-11T01:29:19.416Z,5.50
2022-10-11T01:32:22.939Z,5.30
2022-10-11T01:35:03.233Z,6.80
2022-10-11T01:37:34.845Z,5.75
2022-10-11T01:42:32.738Z,6.25
2022-10-11T01:45:00.019Z,5.20
2022-10-11T01:47:27.357Z,5.55
2022-10-11T01:49:59.848Z,6.00
2022-10-11T01:52:33.843Z,5.93
2022-10-11T01:55:29.383Z,5.90
2022-10-11T01:58:15.195Z,6.65
2022-10-11T02:01:08.926Z,6.25
2022-10-11T02:03:48.009Z,5.45
2022-10-11T02:06:47.808Z,5.07
2022-10-11T02:09:20.312Z,5.40
2022-10-11T02:11:47.044Z,6.28
2022-10-11T02:14:22.376Z,5.43
2022-10-11T02:16:54.867Z,5.63
2022-10-11T02:19:27.830Z,6.05
2022-10-11T02:22:01.111Z,6.30
2022-10-11T02:24:31.978Z,5.60
2022-10-11T02:27:00.013Z,6.10
2022-10-11T02:29:29.786Z,6.72
2022-10-11T02:31:59.519Z,5.93
2022-10-11T02:34:32.701Z,6.38
2022-10-11T02:37:24.624Z,6.07
2022-10-11T02:40:02.296Z,5.90
2022-10-11T02:42:37.330Z,6.15
2022-10-11T02:45:15.923Z,5.45
2022-10-11T02:47:43.515Z,6.03
2022-10-11T02:50:14.650Z,6.45
2022-10-11T02:52:41.483Z,5.65
2022-10-11T02:55:09.081Z,6.15
2022-10-11T02:57:35.777Z,7.13
2022-10-11T03:00:03.651Z,5.60
2022-10-11T03:02:30.402Z,6.07
2022-10-11T03:04:57.524Z,6.82
2022-10-11T03:07:24.169Z,5.47
2022-10-11T03:09:50.983Z,8.50
2022-10-11T03:12:17.677Z,5.60
2022-10-11T03:14:44.334Z,5.60
2022-10-11T03:17:34.431Z,5.47
2022-10-11T03:19:57.954Z,5.53
2022-10-11T03:22:24.582Z,5.72
2022-10-11T03:24:51.314Z,5.93
2022-10-11T03:27:17.959Z,4.95
2022-10-11T03:29:44.697Z,5.57
2022-10-11T03:32:11.370Z,5.70
2022-10-11T03:34:37.979Z,6.00
2022-10-11T03:37:04.812Z,6.07
2022-10-11T03:39:31.481Z,5.68
2022-10-11T03:41:58.173Z,5.63
2022-10-11T03:44:24.945Z,7.13
2022-10-11T03:46:51.623Z,6.68
2022-10-11T03:49:18.234Z,5.85
2022-10-11T03:51:44.862Z,5.70
2022-10-11T03:54:11.580Z,5.93
2022-10-11T03:56:38.261Z,6.20
2022-10-11T03:59:04.893Z,6.65
2022-10-11T04:01:35.761Z,5.95
2022-10-11T04:04:02.518Z,5.87
2022-10-11T04:06:29.346Z,6.05
2022-10-11T04:08:56.123Z,5.82
2022-10-11T04:11:22.877Z,6.45
2022-10-11T04:13:49.548Z,6.38
2022-10-11T04:16:16.571Z,5.95
2022-10-11T04:18:43.309Z,8.18
2022-10-11T04:21:10.108Z,7.68
2022-10-11T04:23:36.710Z,6.97
2022-10-11T04:26:08.944Z,6.57
2022-10-11T04:28:35.930Z,7.15
2022-10-11T04:31:04.985Z,6.05
2022-10-11T04:33:31.748Z,6.15
2022-10-11T04:35:58.426Z,7.10
2022-10-11T04:38:25.299Z,6.00
2022-10-11T04:40:52.090Z,5.53
2022-10-11T04:43:19.406Z,5.28
2022-10-11T04:45:46.175Z,5.72
2022-10-11T04:48:13.917Z,5.40
2022-10-11T04:50:40.613Z,6.03
2022-10-11T04:53:07.782Z,6.28
2022-10-11T04:55:34.405Z,5.80
2022-10-11T04:58:02.078Z,5.63
2022-10-11T05:00:28.806Z,5.15
2022-10-11T05:02:55.448Z,6.43
2022-10-11T05:05:22.105Z,5.78
2022-10-11T05:07:48.786Z,5.70
2022-10-11T05:10:15.595Z,5.72
2022-10-11T05:12:42.456Z,5.95
2022-10-11T05:15:09.578Z,5.93
2022-10-11T05:17:36.248Z,5.95
2022-10-11T05:20:03.227Z,5.28
2022-10-11T05:22:29.847Z,6.10
2022-10-11T05:24:56.477Z,5.65
2022-10-11T05:27:23.074Z,6.30
2022-10-11T05:29:49.770Z,5.75
2022-10-11T05:32:16.432Z,6.60
2022-10-11T05:34:43.229Z,5.82
2022-10-11T05:37:09.995Z,6.28
2022-10-11T05:39:37.077Z,7.18
2022-10-11T05:42:08.962Z,6.07
2022-10-11T05:44:36.514Z,6.78
2022-10-11T05:47:03.565Z,6.57
2022-10-11T05:49:30.556Z,5.93
2022-10-11T05:51:57.196Z,5.72
2022-10-11T05:54:23.887Z,6.03
2022-10-11T05:56:50.632Z,6.20
2022-10-11T05:59:17.239Z,5.80
2022-10-11T06:01:43.925Z,6.32
2022-10-11T06:04:11.691Z,5.43
2022-10-11T06:06:38.433Z,6.47
2022-10-11T06:09:05.222Z,6.43
2022-10-11T06:11:32.090Z,6.00
2022-10-11T06:13:58.778Z,6.00
2022-10-11T06:16:26.849Z,6.05
2022-10-11T06:18:54.926Z,6.88
2022-10-11T06:21:23.099Z,7.22
2022-10-11T06:23:52.948Z,7.07
2022-10-11T06:26:21.805Z,8.13
2022-10-11T06:28:48.583Z,7.43
2022-10-11T06:31:15.323Z,9.23
2022-10-11T06:33:42.107Z,8.25
2022-10-11T06:36:12.208Z,8.98
2022-10-11T06:38:44.494Z,8.55
2022-10-11T06:41:11.699Z,8.82
2022-10-11T06:43:38.410Z,9.98
2022-10-11T06:46:05.956Z,8.80
2022-10-11T06:48:32.992Z,9.60
2022-10-11T06:51:00.734Z,9.20
2022-10-11T06:53:27.897Z,9.30
2022-10-11T06:55:54.575Z,8.80
2022-10-11T06:58:21.390Z,9.80
2022-10-11T07:00:48.248Z,8.50
2022-10-11T07:03:14.961Z,7.85
2022-10-11T07:05:41.681Z,10.02
2022-10-11T07:08:08.375Z,12.05
2022-10-11T07:10:36.419Z,11.57
2022-10-11T07:13:03.137Z,11.20
2022-10-11T07:15:29.836Z,10.65
2022-10-11T07:17:56.767Z,8.70
2022-10-11T07:20:23.479Z,10.38
2022-10-11T07:22:50.302Z,9.98
2022-10-11T07:25:17.080Z,11.82
2022-10-11T07:27:43.728Z,11.35
2022-10-11T07:30:10.969Z,11.43
2022-10-11T07:32:37.618Z,11.00
2022-10-11T07:35:04.563Z,9.45
2022-10-11T07:37:31.452Z,9.93
2022-10-11T07:39:58.257Z,9.35
2022-10-11T07:42:25.122Z,10.43
2022-10-11T07:44:51.841Z,9.95
2022-10-11T07:47:18.532Z,9.00
2022-10-11T07:49:45.300Z,9.82
2022-10-11T07:52:39.159Z,9.43
2022-10-11T07:55:06.676Z,10.43
2022-10-11T07:57:33.338Z,9.57
2022-10-11T07:59:59.944Z,8.48
2022-10-11T08:02:26.642Z,10.43
2022-10-11T08:04:53.300Z,10.07
2022-10-11T08:07:19.926Z,10.93
2022-10-11T08:09:46.560Z,10.25
2022-10-11T08:12:13.243Z,9.68
2022-10-11T08:14:41.486Z,10.43
2022-10-11T08:17:08.681Z,9.52
2022-10-11T08:19:35.389Z,9.52
2022-10-11T08:22:02.191Z,8.20
2022-10-11T08:24:28.902Z,9.77
2022-10-11T08:26:55.647Z,8.95
2022-10-11T08:29:22.370Z,7.78
2022-10-11T08:31:49.165Z,8.18
2022-10-11T08:34:15.925Z,7.90
2022-10-11T08:36:42.683Z,8.15
2022-10-11T08:39:09.334Z,7.85
2022-10-11T08:41:55.749Z,7.80
2022-10-11T08:45:10.119Z,6.90
2022-10-11T08:47:39.606Z,7.82
2022-10-11T08:50:15.519Z,7.20
2022-10-11T08:52:54.435Z,6.88
2022-10-11T08:55:41.823Z,6.55
2022-10-11T08:58:15.183Z,6.70
2022-10-11T09:00:44.433Z,7.85
2022-10-11T09:03:35.582Z,7.75
2022-10-11T09:06:36.767Z,7.07
2022-10-11T09:09:15.556Z,6.60
2022-10-11T09:11:51.688Z,6.65
2022-10-11T09:14:39.181Z,8.18
2022-10-11T09:17:28.846Z,6.60
2022-10-11T09:20:44.532Z,6.38
2022-10-11T09:23:26.401Z,6.47
2022-10-11T09:26:21.070Z,6.18
2022-10-11T09:29:02.158Z,7.07
2022-10-11T09:31:29.895Z,5.80
2022-10-11T09:33:59.581Z,6.75
2022-10-11T09:36:30.583Z,5.53
2022-10-11T09:39:24.612Z,5.70
2022-10-11T09:42:05.364Z,7.15
2022-10-11T09:44:51.903Z,5.85
2022-10-11T09:47:27.387Z,6.45
2022-10-11T09:49:54.091Z,5.53
2022-10-11T09:52:22.964Z,4.63
2022-10-11T09:54:54.053Z,4.85
2022-10-11T09:57:27.295Z,4.32
2022-10-11T10:00:22.547Z,3.65
2022-10-11T10:02:51.641Z,3.10
2022-10-11T10:05:23.665Z,3.08
2022-10-11T10:08:09.202Z,2.55
2022-10-11T10:10:40.840Z,2.78
2022-10-11T10:16:00.431Z,2.55
2022-10-11T10:18:38.915Z,2.28
2022-10-11T10:21:10.746Z,2.35
2022-10-11T10:23:37.823Z,2.10
2022-10-11T10:26:16.005Z,2.35
2022-10-11T10:28:55.111Z,3.03
2022-10-11T10:32:12.454Z,2.70
2022-10-11T10:34:36.128Z,2.42
2022-10-11T10:37:15.541Z,2.30
2022-10-11T10:39:49.538Z,2.03
2022-10-11T10:42:20.547Z,2.40
2022-10-11T10:44:56.857Z,2.13
2022-10-11T10:47:26.633Z,2.38
2022-10-11T10:50:24.232Z,2.55
2022-10-11T10:53:12.273Z,2.20
2022-10-11T10:55:42.165Z,2.22
2022-10-11T10:58:25.180Z,1.38
2022-10-11T11:01:23.213Z,1.33
2022-10-11T11:04:14.265Z,1.73
2022-10-11T11:06:50.824Z,2.20
2022-10-11T11:09:42.152Z,1.77
2022-10-11T11:12:49.139Z,2.03
2022-10-11T11:15:27.165Z,1.85
2022-10-11T11:18:03.707Z,2.20
2022-10-11T11:20:39.699Z,1.70
2022-10-11T11:23:27.169Z,2.03
2022-10-11T11:26:10.745Z,1.50
2022-10-11T11:28:52.298Z,2.20
2022-10-11T11:31:47.615Z,1.80
2022-10-11T11:34:25.685Z,1.98
2022-10-11T11:37:04.371Z,2.10
2022-10-11T11:39:44.509Z,1.95
2022-10-11T11:42:26.565Z,2.20
2022-10-11T11:44:53.961Z,2.50
2022-10-11T11:47:29.232Z,2.25
2022-10-11T11:50:15.170Z,2.17
2022-10-11T11:52:47.508Z,3.13
2022-10-11T11:55:43.304Z,2.10
2022-10-11T11:58:28.162Z,2.10
2022-10-11T12:01:18.342Z,1.80
2022-10-11T12:03:50.747Z,2.20
2022-10-11T12:06:28.708Z,1.67
2022-10-11T12:09:21.479Z,2.08
2022-10-11T12:12:01.206Z,2.40
2022-10-11T12:14:27.895Z,1.80
2022-10-11T12:17:08.610Z,1.88
2022-10-11T12:19:37.211Z,1.60
2022-10-11T12:22:53.259Z,2.50
2022-10-11T12:25:22.529Z,1.70
2022-10-11T12:27:57.084Z,2.35
2022-10-11T12:30:42.437Z,2.15
2022-10-11T12:33:23.984Z,3.05
2022-10-11T12:35:53.359Z,2.15
2022-10-11T12:38:21.916Z,2.10
2022-10-11T12:40:56.119Z,2.80
2022-10-11T12:43:27.565Z,1.70
2022-10-11T12:45:54.349Z,2.30
2022-10-11T12:48:41.010Z,1.90
2022-10-11T12:51:22.758Z,2.47
2022-10-11T12:54:21.925Z,2.10
2022-10-11T12:57:00.417Z,1.85
2022-10-11T12:59:27.400Z,2.20
2022-10-11T13:01:57.906Z,1.92
2022-10-11T13:04:33.076Z,2.17
2022-10-11T13:07:12.365Z,2.38
2022-10-11T13:09:44.175Z,2.13
2022-10-11T13:12:19.741Z,1.92
2022-10-11T13:14:59.593Z,2.53
2022-10-11T13:17:37.411Z,3.05
2022-10-11T13:20:26.601Z,2.33
2022-10-11T13:22:55.071Z,2.00
2022-10-11T13:25:35.877Z,2.03
2022-10-11T13:28:02.980Z,1.67
2022-10-11T13:30:34.211Z,2.78
2022-10-11T13:33:05.744Z,2.20
2022-10-11T13:35:38.035Z,1.98
2022-10-11T13:38:08.585Z,1.90
2022-10-11T13:40:37.421Z,2.40
2022-10-11T13:43:05.614Z,3.08
2022-10-11T13:45:35.093Z,1.75
2022-10-11T13:48:01.941Z,1.85
2022-10-11T13:50:35.116Z,2.08
2022-10-11T13:53:03.399Z,1.92
2022-10-11T13:55:30.006Z,2.60
2022-10-11T13:57:59.210Z,1.60
2022-10-11T14:00:30.662Z,2.80
2022-10-11T14:03:01.749Z,2.05
2022-10-11T14:05:30.564Z,1.90
2022-10-11T14:08:00.507Z,1.40
2022-10-11T14:10:27.713Z,1.65
2022-10-11T14:13:20.370Z,1.67
2022-10-11T14:15:57.795Z,1.50
2022-10-11T14:19:11.295Z,2.08
2022-10-11T14:21:46.399Z,2.35
2022-10-11T14:24:14.445Z,2.10
2022-10-11T14:26:47.631Z,2.13
2022-10-11T14:29:35.198Z,2.17
2022-10-11T14:32:03.867Z,1.48
2022-10-11T14:34:31.503Z,2.15
2022-10-11T14:36:58.535Z,2.03
2022-10-11T14:39:27.869Z,1.55
2022-10-11T14:41:55.059Z,1.80
2022-10-11T14:44:22.318Z,2.25
2022-10-11T14:46:50.895Z,1.67
2022-10-11T14:49:24.899Z,1.92
2022-10-11T14:51:52.843Z,2.22
2022-10-11T14:54:23.988Z,2.28
2022-10-11T14:56:52.673Z,1.88
2022-10-11T14:59:22.612Z,2.28
2022-10-11T15:01:51.906Z,1.70
2022-10-11T15:04:22.677Z,2.15
2022-10-11T15:06:50.371Z,2.25
2022-10-11T15:09:20.646Z,2.55
2022-10-11T15:11:49.825Z,2.10
2022-10-11T15:14:16.611Z,1.60
2022-10-11T15:16:43.773Z,1.90
2022-10-11T15:19:16.131Z,2.55
2022-10-11T15:21:43.319Z,1.90
2022-10-11T15:24:10.177Z,2.05
2022-10-11T15:26:36.989Z,1.95
2022-10-11T15:29:04.187Z,2.58
2022-10-11T15:31:31.003Z,1.75
2022-10-11T15:34:01.802Z,1.70
2022-10-11T15:36:29.498Z,2.00
2022-10-11T15:38:56.367Z,2.28
2022-10-11T15:41:23.880Z,1.88
2022-10-11T15:43:50.958Z,1.95
2022-10-11T15:46:22.084Z,1.80
2022-10-11T15:48:50.384Z,2.10
2022-10-11T15:51:17.464Z,3.08
2022-10-11T15:53:44.249Z,3.03
2022-10-11T15:56:16.322Z,2.42
2022-10-11T15:58:43.346Z,1.85
2022-10-11T16:01:17.751Z,1.60
2022-10-11T16:03:45.493Z,2.08
2022-10-11T16:06:13.332Z,2.35
2022-10-11T16:08:40.604Z,1.98
2022-10-11T16:11:08.887Z,1.98
2022-10-11T16:13:35.872Z,1.70
2022-10-11T16:16:05.439Z,5.60
2022-10-11T16:18:35.373Z,5.00
2022-10-11T16:21:07.937Z,2.70
2022-10-11T16:23:35.165Z,2.38
2022-10-11T16:26:07.688Z,2.22
2022-10-11T16:28:35.647Z,2.38
2022-10-11T16:31:08.003Z,2.17
2022-10-11T16:33:34.780Z,1.75
2022-10-11T16:36:25.235Z,1.75
2022-10-11T16:38:52.054Z,2.40
2022-10-11T16:41:19.852Z,2.15
2022-10-11T16:43:51.595Z,2.20
2022-10-11T16:48:45.753Z,2.55
2022-10-11T16:51:12.493Z,2.58
2022-10-11T16:53:39.239Z,3.50
2022-10-11T16:56:10.283Z,3.75
2022-10-11T16:58:37.464Z,3.83
2022-10-11T17:01:08.559Z,4.07
2022-10-11T17:03:35.260Z,3.55
2022-10-11T17:06:02.214Z,4.22
2022-10-11T17:08:29.030Z,3.97
2022-10-11T17:10:57.878Z,4.40
2022-10-11T17:13:24.675Z,3.97
2022-10-11T17:15:51.412Z,3.80
2022-10-11T17:18:18.607Z,4.07
2022-10-11T17:20:45.441Z,4.13
2022-10-11T17:23:12.406Z,3.22
2022-10-11T17:25:46.862Z,4.85
2022-10-11T17:28:13.724Z,3.80
2022-10-11T17:30:43.433Z,3.50
2022-10-11T17:33:10.182Z,3.90
2022-10-11T17:35:36.810Z,4.63
2022-10-11T17:38:06.442Z,4.60
2022-10-11T17:40:33.503Z,4.32
2022-10-11T17:43:00.182Z,5.22
2022-10-11T17:45:26.845Z,4.80
2022-10-11T17:47:53.502Z,5.28
2022-10-11T17:50:20.171Z,6.90
2022-10-11T17:52:47.126Z,7.13
2022-10-11T17:55:13.790Z,9.73
2022-10-11T17:57:40.667Z,8.00
2022-10-11T18:00:08.278Z,10.68
2022-10-11T18:02:34.990Z,9.40
2022-10-11T18:05:01.680Z,9.85
2022-10-11T18:07:28.474Z,10.35
2022-10-11T18:09:55.239Z,11.80
2022-10-11T18:12:22.012Z,10.15
2022-10-11T18:14:50.888Z,10.30
2022-10-11T18:17:18.271Z,10.13
2022-10-11T18:19:45.019Z,8.88
2022-10-11T18:22:11.812Z,9.82
2022-10-11T18:24:39.050Z,10.20
2022-10-11T18:27:05.914Z,9.50
2022-10-11T18:29:32.604Z,10.10
2022-10-11T18:31:59.279Z,11.02
2022-10-11T18:34:25.921Z,11.38
2022-10-11T18:36:52.679Z,12.77
2022-10-11T18:39:21.704Z,13.43
2022-10-11T18:41:48.716Z,13.23
2022-10-11T18:44:15.957Z,13.82
2022-10-11T18:46:43.469Z,13.65
2022-10-11T18:49:10.465Z,14.20
2022-10-11T18:51:39.484Z,12.57
2022-10-11T18:54:08.290Z,13.85
2022-10-11T18:56:36.752Z,11.98
2022-10-11T18:59:04.425Z,12.43
2022-10-11T19:01:38.145Z,12.13
2022-10-11T19:04:06.588Z,13.82
2022-10-11T19:06:36.800Z,14.05
2022-10-11T19:09:11.926Z,13.65
2022-10-11T19:11:39.368Z,13.45
2022-10-11T19:14:07.484Z,13.80
2022-10-11T19:16:37.709Z,14.32
2022-10-11T19:19:05.042Z,13.43
2022-10-11T19:21:31.922Z,12.80
2022-10-11T19:23:58.703Z,12.77
2022-10-11T19:26:31.840Z,13.65
2022-10-11T19:29:06.804Z,13.52
2022-10-11T19:31:35.567Z,13.65
2022-10-11T19:34:02.751Z,12.35
2022-10-11T19:36:34.052Z,13.30
2022-10-11T19:39:04.636Z,11.95
2022-10-11T19:41:31.783Z,12.23
2022-10-11T19:43:58.665Z,11.85
2022-10-11T19:49:15.662Z,9.98
2022-10-11T19:51:42.413Z,12.25
2022-10-11T19:54:12.278Z,11.43
2022-10-11T19:56:39.143Z,12.35
2022-10-11T19:59:08.588Z,13.43
2022-10-11T20:01:36.511Z,13.43
2022-10-11T20:04:08.662Z,11.35
2022-10-11T20:06:39.474Z,12.25
2022-10-11T20:09:28.525Z,12.52
2022-10-11T20:11:54.559Z,11.98
2022-10-11T20:14:21.322Z,12.15
2022-10-11T20:16:50.149Z,14.48
2022-10-11T20:19:17.287Z,13.55
2022-10-11T20:21:44.865Z,12.30
2022-10-11T20:24:11.648Z,11.70
2022-10-11T20:26:39.188Z,13.07
2022-10-11T20:29:05.997Z,11.10
2022-10-11T20:31:37.894Z,12.60
2022-10-11T20:34:06.953Z,13.32
2022-10-11T20:36:35.773Z,13.30
2022-10-11T20:39:02.746Z,13.02
2022-10-11T20:41:32.894Z,11.88
2022-10-11T20:44:01.302Z,12.82
2022-10-11T20:46:31.380Z,12.77
2022-10-11T20:49:04.023Z,11.65
2022-10-11T20:51:32.843Z,12.82
2022-10-11T20:54:00.589Z,13.05
2022-10-11T20:56:27.945Z,12.20
2022-10-11T20:58:56.066Z,12.50
2022-10-11T21:01:28.702Z,12.40
2022-10-11T21:03:58.953Z,13.07
2022-10-11T21:06:26.541Z,13.50
2022-10-11T21:08:55.780Z,12.75
2022-10-11T21:11:26.523Z,12.77
2022-10-11T21:13:57.925Z,13.00
2022-10-11T21:16:25.547Z,13.43
2022-10-11T21:18:54.636Z,14.80
2022-10-11T21:21:23.351Z,15.65
2022-10-11T21:23:53.865Z,16.73
2022-10-11T21:26:20.654Z,15.48
2022-10-11T21:28:47.689Z,15.13
2022-10-11T21:31:16.862Z,14.77
2022-10-11T21:33:44.525Z,14.73
2022-10-11T21:36:22.195Z,15.90
2022-10-11T21:38:50.162Z,14.00
2022-10-11T21:41:19.685Z,13.77
2022-10-11T21:43:47.241Z,15.63
2022-10-11T21:46:54.164Z,15.57
2022-10-11T21:49:16.860Z,16.08
2022-10-11T21:51:43.737Z,14.38
2022-10-11T21:54:10.721Z,14.68
2022-10-11T21:56:37.480Z,15.38
2022-10-11T21:59:06.632Z,15.55
2022-10-11T22:01:36.829Z,16.55
2022-10-11T22:04:04.872Z,14.23
2022-10-11T22:06:31.747Z,16.63
2022-10-11T22:08:58.358Z,15.38
2022-10-11T22:11:25.187Z,14.88
2022-10-11T22:13:51.917Z,16.70
2022-10-11T22:16:19.017Z,15.30
2022-10-11T22:18:45.770Z,16.67
2022-10-11T22:21:14.012Z,15.65
2022-10-11T22:23:42.970Z,16.13
2022-10-11T22:26:12.808Z,16.30
2022-10-11T22:28:40.234Z,17.40
2022-10-11T22:31:08.171Z,16.60
2022-10-11T22:33:35.747Z,15.95
2022-10-11T22:36:04.960Z,17.85
2022-10-11T22:38:31.801Z,18.40
2022-10-11T22:40:58.952Z,18.52
2022-10-11T22:43:25.814Z,17.30
2022-10-11T22:45:52.540Z,15.90
2022-10-11T22:48:19.430Z,16.65
2022-10-11T22:50:46.656Z,16.13
2022-10-11T22:53:14.429Z,17.33
2022-10-11T22:55:41.630Z,17.45
2022-10-11T22:58:08.985Z,16.70
2022-10-11T23:00:35.862Z,17.08
2022-10-11T23:03:02.567Z,16.75
2022-10-11T23:05:29.296Z,16.83
2022-10-11T23:07:55.973Z,16.92
2022-10-11T23:10:22.727Z,17.13
2022-10-11T23:12:49.427Z,16.92
2022-10-11T23:15:16.330Z,17.05
2022-10-11T23:17:43.084Z,18.08
2022-10-11T23:20:10.365Z,17.55
2022-10-11T23:22:37.376Z,17.20
2022-10-11T23:25:05.043Z,17.67
2022-10-11T23:27:31.764Z,17.70
2022-10-11T23:29:58.464Z,16.48
2022-10-11T23:32:25.324Z,16.55
2022-10-11T23:34:51.967Z,16.42
2022-10-11T23:37:18.617Z,16.75
2022-10-11T23:39:45.489Z,16.92
2022-10-11T23:42:12.152Z,17.23
2022-10-11T23:44:38.990Z,16.45
2022-10-11T23:47:05.740Z,17.58
2022-10-11T23:49:32.455Z,15.77
2022-10-11T23:51:59.161Z,16.13
2022-10-11T23:54:26.058Z,15.75
2022-10-11T23:56:53.038Z,15.60
2022-10-11T23:59:19.727Z,16.58
